Skip to main content

NOAA/GLERL Met Station at Chicago, IL

Previous 3 Hours (2 minute increments)
See also Previous 5 Days (top of hour)
Jump down to Data
Switch to [English][Metric]
Zoom: Click and drag, Pan: shift-click and drag, Unzoom: double-click, Unzoom All




See also 1-day windrose plot


NOAA/GLERL Met Station at Chicago, IL

Previous 3 Hours (2 minute increments)
See also Previous 5 Days (top of hour only)
Jump up to Graphs
Switch to [English][Metric]
                  Wind  Wind  Wind   Air   Dew   Rel
                   Spd   Gst   Dir  Temp    Pt   Hum
YYYY-MM-DD   CDT   kts   kts   deg     F     F     %
2020-07-12 11:36  19.1  20.6    17  71.4  63.2  74.8
2020-07-12 11:34  19.1  20.2    18  71.6  63.1  74.1
2020-07-12 11:32  16.9  18.9    18  71.6  64.4  77.7
2020-07-12 11:30  16.7  18.1    18  71.6  64.5  78.0
2020-07-12 11:28  17.7  18.7    20  71.8  64.4  77.2
2020-07-12 11:26  18.1  19.6    26  71.6  63.9  76.4
2020-07-12 11:24  19.1  20.6    28  71.6  63.8  76.1
2020-07-12 11:22  18.3  20.4    25  71.6  64.0  76.6
2020-07-12 11:20  18.9  20.4    17  71.8  63.6  75.0
2020-07-12 11:18  17.7  19.6    15  71.6  63.4  75.1
2020-07-12 11:16  19.1  21.0    16  71.8  63.8  75.7
2020-07-12 11:14  18.7  20.4    14  71.8  63.8  75.7
2020-07-12 11:12  17.9  19.8    21  71.8  64.6  77.9
2020-07-12 11:10  20.0  21.4    18  71.6  63.5  75.2
2020-07-12 11:08  19.8  22.2    15  71.8  63.8  75.7
2020-07-12 11:06  18.9  20.4    20  71.8  64.8  78.3
2020-07-12 11:04  18.1  19.2    20  71.6  64.6  78.2
2020-07-12 11:02  18.9  20.8    14  71.8  64.0  76.2
2020-07-12 11:00  18.9  20.8    17  72.0  64.0  75.7
2020-07-12 10:58  19.2  21.6    20  71.8  64.0  76.1
2020-07-12 10:56  18.3  19.8    20  71.8  64.0  76.1
2020-07-12 10:54  19.2  20.8    22  71.8  63.8  75.7
2020-07-12 10:52  18.5  20.6    23  71.8  64.6  77.8
2020-07-12 10:50  19.1  21.0    21  71.6  64.1  76.8
2020-07-12 10:48  19.8  21.4    21  71.6  64.0  76.7
2020-07-12 10:46  20.2  21.2    25  71.8  64.6  77.8
2020-07-12 10:44  18.5  20.4    21  71.6  64.6  78.3
2020-07-12 10:42  20.4  21.6    22  71.6  64.4  77.8
2020-07-12 10:40  20.0  21.6    20  71.8  64.8  78.4
2020-07-12 10:38  20.4  22.6    18  71.6  65.0  79.3
2020-07-12 10:36  19.6  20.8    18  71.6  65.1  79.7
2020-07-12 10:34  19.8  21.6    20  71.8  65.3  79.7
2020-07-12 10:32  18.9  21.2    24  71.8  65.6  80.5
2020-07-12 10:30  19.6  21.4    21  71.8  64.9  78.5
2020-07-12 10:28  19.6  22.0    19  71.8  65.1  79.3
2020-07-12 10:26  20.6  21.6    17  71.8  64.5  77.5
2020-07-12 10:24  18.7  20.8    26  72.0  65.0  78.5
2020-07-12 10:22  20.6  22.7    32  72.0  63.8  75.1
2020-07-12 10:20  21.2  22.4    32  72.0  63.5  74.3
2020-07-12 10:18  21.0  22.2    27  72.0  63.6  74.6
2020-07-12 10:16  21.4  22.7    30  72.0  63.8  75.0
2020-07-12 10:14  21.2  22.9    25  72.0  63.8  75.2
2020-07-12 10:12  20.8  22.7    21  72.0  64.4  76.8
2020-07-12 10:10  21.2  22.9    25  72.0  64.6  77.4
2020-07-12 10:08  20.8  22.9    24  72.1  65.5  79.4
2020-07-12 10:06  21.0  22.2    21  72.0  65.3  79.2
2020-07-12 10:04  21.0  23.5    27  72.0  65.6  80.1
2020-07-12 10:02  22.4  24.5    24  72.0  64.8  77.8
2020-07-12 10:00  22.2  24.1    24  72.0  64.9  78.0
2020-07-12 09:58  22.6  24.5    27  72.1  65.3  78.8
2020-07-12 09:56  21.6  23.7    25  72.1  66.0  80.7
2020-07-12 09:54  21.8  23.3    27  72.0  65.3  79.2
2020-07-12 09:52  22.7  24.5    26  72.1  65.9  80.4
2020-07-12 09:50  22.6  24.3    23  72.0  65.8  80.6
2020-07-12 09:48  23.1  25.7    24  72.1  66.2  81.3
2020-07-12 09:46  24.3  25.7    24  72.0  65.8  80.6
2020-07-12 09:44  23.5  25.5    23  72.1  66.3  81.5
2020-07-12 09:42  23.5  26.0    24  72.3  66.5  81.7
2020-07-12 09:40  24.7  26.4    21  72.3  66.7  82.3
2020-07-12 09:38  24.5  27.2    20  72.5  66.8  82.0
2020-07-12 09:36  24.1  26.4    24  72.5  66.8  82.0
2020-07-12 09:34  25.1  27.0    25  72.5  66.9  82.2
2020-07-12 09:32  23.1  26.8    25  72.7  67.9  84.6
2020-07-12 09:30  24.1  27.0    17  72.5  67.2  83.3
2020-07-12 09:28  25.3  26.6    17  72.5  67.3  83.6
2020-07-12 09:26  25.3  27.6    15  72.5  67.4  83.8
2020-07-12 09:24  24.5  26.8    17  72.7  68.0  85.0
2020-07-12 09:22  24.7  26.8    16  72.7  67.9  84.7
2020-07-12 09:20  24.1  26.2    23  72.7  68.4  86.3
2020-07-12 09:18  23.9  26.0    16  72.7  68.5  86.4
2020-07-12 09:16  25.1  27.2    18  72.7  68.3  85.9
2020-07-12 09:14  24.3  26.8    18  72.9  69.0  87.5
2020-07-12 09:12  24.5  26.6    15  72.9  69.2  88.0
2020-07-12 09:10  25.1  27.6    13  72.7  68.7  87.2
2020-07-12 09:08  25.3  28.2    12  72.7  68.9  87.8
2020-07-12 09:06  26.0  27.2    16  72.7  68.9  87.6
2020-07-12 09:04  25.5  27.6    15  72.9  69.4  88.8
2020-07-12 09:02  25.5  27.6    15  72.9  69.6  89.2
2020-07-12 09:00  24.1  26.4    16  72.9  70.0  90.5
2020-07-12 08:58  21.2  23.7    15  73.2  70.8  91.9
2020-07-12 08:56  21.0  22.6    15  73.0  70.4  91.2
2020-07-12 08:54  19.8  22.9    14  73.2  70.9  92.2
2020-07-12 08:52  18.1  20.0    14  73.2  71.0  92.5
2020-07-12 08:50  18.9  19.6    16  73.2  70.5  90.9
2020-07-12 08:48  17.7  19.4    17  73.2  70.6  91.3
2020-07-12 08:46  16.7  17.9    14  73.4  71.0  92.1
2020-07-12 08:44  15.4  17.5    15  73.6  71.5  93.0
2020-07-12 08:42  16.3  17.3    17  73.6  71.1  91.8
2020-07-12 08:40  15.6  16.9    13  73.4  70.9  91.6
2020-07-12 08:38  14.4  15.9    15  73.6  71.0  91.4
2020-07-12 08:36  12.8  14.2    16  73.6  70.9  91.1